Walterboro, South Carolina
Current Conditions -  °F | °C
As of 4:15 PM on Tuesday 21 Oct 2014 (Local Time) from KRBW Reporting Station
Clear Clear  
Wind Chill: 81°   Ceiling: Unl
Heat Index: 81°   Visibility: 10mi
Dew Point: 39°   Wind: 9mph
Humidity: 23%   Direction: 260°W
Pressure: 29.88"   Gusts: NA
Location:  32.9°N, 80.67°W
Report Text: KRBW 212015Z AUTO 26008KT 10SM CLR 27/04 A2988 RMK AO2
Loading
Personal Weather Stations






























Interactive Weather Map
Tropical Storm Tracking
New forecast layout! Learn more

10-Day Weather Forecast

Advertisements
Track Severe Weather on mobile